sensor_id;sensor_type;location;lat;lon;timestamp;P1;durP1;ratioP1;P2;durP2;ratioP2
16254;SDS011;8235;52.198;9.904;2023-06-10T00:01:49;6.73;;;4.27;;
16254;SDS011;8235;52.198;9.904;2023-06-10T00:04:16;6.00;;;3.50;;
16254;SDS011;8235;52.198;9.904;2023-06-10T00:06:43;4.27;;;3.40;;
16254;SDS011;8235;52.198;9.904;2023-06-10T00:09:10;5.30;;;3.53;;
16254;SDS011;8235;52.198;9.904;2023-06-10T00:11:36;5.23;;;3.83;;
16254;SDS011;8235;52.198;9.904;2023-06-10T00:14:05;5.57;;;3.60;;
16254;SDS011;8235;52.198;9.904;2023-06-10T00:16:32;5.13;;;4.23;;
16254;SDS011;8235;52.198;9.904;2023-06-10T00:18:59;6.20;;;3.60;;
16254;SDS011;8235;52.198;9.904;2023-06-10T00:21:26;5.00;;;3.80;;
16254;SDS011;8235;52.198;9.904;2023-06-10T00:23:52;4.93;;;3.60;;
16254;SDS011;8235;52.198;9.904;2023-06-10T00:26:20;4.83;;;4.00;;
16254;SDS011;8235;52.198;9.904;2023-06-10T00:28:47;3.93;;;3.50;;
16254;SDS011;8235;52.198;9.904;2023-06-10T00:31:15;5.13;;;3.70;;
16254;SDS011;8235;52.198;9.904;2023-06-10T00:33:42;5.77;;;3.60;;
16254;SDS011;8235;52.198;9.904;2023-06-10T00:36:08;5.60;;;4.07;;
16254;SDS011;8235;52.198;9.904;2023-06-10T00:38:35;4.80;;;3.17;;
16254;SDS011;8235;52.198;9.904;2023-06-10T00:41:01;4.90;;;3.17;;
16254;SDS011;8235;52.198;9.904;2023-06-10T00:43:28;5.07;;;3.30;;
16254;SDS011;8235;52.198;9.904;2023-06-10T00:45:54;4.43;;;3.40;;
16254;SDS011;8235;52.198;9.904;2023-06-10T00:48:22;6.17;;;3.80;;
16254;SDS011;8235;52.198;9.904;2023-06-10T00:50:49;7.97;;;3.80;;
16254;SDS011;8235;52.198;9.904;2023-06-10T00:53:16;5.13;;;3.60;;
16254;SDS011;8235;52.198;9.904;2023-06-10T00:55:43;3.80;;;3.33;;
16254;SDS011;8235;52.198;9.904;2023-06-10T00:58:10;5.43;;;2.93;;
16254;SDS011;8235;52.198;9.904;2023-06-10T01:00:37;7.27;;;3.20;;
16254;SDS011;8235;52.198;9.904;2023-06-10T01:03:03;9.53;;;4.10;;
16254;SDS011;8235;52.198;9.904;2023-06-10T01:05:34;5.77;;;3.67;;
16254;SDS011;8235;52.198;9.904;2023-06-10T01:08:01;7.23;;;3.50;;
16254;SDS011;8235;52.198;9.904;2023-06-10T01:10:32;6.50;;;3.83;;
16254;SDS011;8235;52.198;9.904;2023-06-10T01:13:02;4.83;;;3.20;;
16254;SDS011;8235;52.198;9.904;2023-06-10T01:15:32;4.97;;;3.27;;
16254;SDS011;8235;52.198;9.904;2023-06-10T01:18:00;5.30;;;3.20;;
16254;SDS011;8235;52.198;9.904;2023-06-10T01:20:27;5.33;;;3.47;;
16254;SDS011;8235;52.198;9.904;2023-06-10T01:22:56;4.63;;;3.73;;
16254;SDS011;8235;52.198;9.904;2023-06-10T01:25:23;6.20;;;4.10;;
16254;SDS011;8235;52.198;9.904;2023-06-10T01:27:53;5.07;;;4.07;;
16254;SDS011;8235;52.198;9.904;2023-06-10T01:30:21;4.10;;;3.50;;
16254;SDS011;8235;52.198;9.904;2023-06-10T01:32:54;7.03;;;4.37;;
16254;SDS011;8235;52.198;9.904;2023-06-10T01:35:24;5.07;;;3.47;;
16254;SDS011;8235;52.198;9.904;2023-06-10T01:37:53;6.73;;;3.73;;
16254;SDS011;8235;52.198;9.904;2023-06-10T01:40:23;5.33;;;3.50;;
16254;SDS011;8235;52.198;9.904;2023-06-10T01:42:50;4.93;;;3.53;;
16254;SDS011;8235;52.198;9.904;2023-06-10T01:45:17;4.47;;;3.40;;
16254;SDS011;8235;52.198;9.904;2023-06-10T01:47:43;5.57;;;4.00;;
16254;SDS011;8235;52.198;9.904;2023-06-10T01:50:10;6.27;;;4.20;;
16254;SDS011;8235;52.198;9.904;2023-06-10T01:52:36;7.20;;;4.07;;
16254;SDS011;8235;52.198;9.904;2023-06-10T01:55:04;6.60;;;3.87;;
16254;SDS011;8235;52.198;9.904;2023-06-10T01:57:34;6.80;;;4.07;;
16254;SDS011;8235;52.198;9.904;2023-06-10T02:00:01;7.73;;;4.50;;
16254;SDS011;8235;52.198;9.904;2023-06-10T02:02:28;7.37;;;4.03;;
16254;SDS011;8235;52.198;9.904;2023-06-10T02:04:54;6.60;;;4.07;;
16254;SDS011;8235;52.198;9.904;2023-06-10T02:07:22;7.33;;;4.50;;
16254;SDS011;8235;52.198;9.904;2023-06-10T02:09:48;5.90;;;3.80;;
16254;SDS011;8235;52.198;9.904;2023-06-10T02:12:15;5.97;;;4.47;;
16254;SDS011;8235;52.198;9.904;2023-06-10T02:14:42;6.13;;;4.20;;
16254;SDS011;8235;52.198;9.904;2023-06-10T02:17:09;4.83;;;3.80;;
16254;SDS011;8235;52.198;9.904;2023-06-10T02:19:37;4.87;;;3.60;;
16254;SDS011;8235;52.198;9.904;2023-06-10T02:22:07;8.37;;;4.47;;
16254;SDS011;8235;52.198;9.904;2023-06-10T02:24:35;4.70;;;4.00;;
16254;SDS011;8235;52.198;9.904;2023-06-10T02:27:02;5.93;;;4.17;;
16254;SDS011;8235;52.198;9.904;2023-06-10T02:29:28;8.17;;;4.30;;
16254;SDS011;8235;52.198;9.904;2023-06-10T02:31:56;8.40;;;4.20;;
16254;SDS011;8235;52.198;9.904;2023-06-10T02:34:23;4.80;;;4.20;;
16254;SDS011;8235;52.198;9.904;2023-06-10T02:36:49;6.37;;;4.50;;
16254;SDS011;8235;52.198;9.904;2023-06-10T02:39:16;7.00;;;4.20;;
16254;SDS011;8235;52.198;9.904;2023-06-10T02:41:42;6.73;;;4.47;;
16254;SDS011;8235;52.198;9.904;2023-06-10T02:44:09;5.13;;;4.13;;
16254;SDS011;8235;52.198;9.904;2023-06-10T02:46:35;5.63;;;3.97;;
16254;SDS011;8235;52.198;9.904;2023-06-10T02:49:03;5.33;;;3.87;;
16254;SDS011;8235;52.198;9.904;2023-06-10T02:51:30;8.93;;;4.80;;
16254;SDS011;8235;52.198;9.904;2023-06-10T02:53:56;7.53;;;4.13;;
16254;SDS011;8235;52.198;9.904;2023-06-10T02:56:22;6.33;;;3.83;;
16254;SDS011;8235;52.198;9.904;2023-06-10T02:58:50;5.87;;;4.77;;
16254;SDS011;8235;52.198;9.904;2023-06-10T03:01:17;8.60;;;4.80;;
16254;SDS011;8235;52.198;9.904;2023-06-10T03:03:43;5.97;;;4.67;;
16254;SDS011;8235;52.198;9.904;2023-06-10T03:06:12;6.70;;;4.40;;
16254;SDS011;8235;52.198;9.904;2023-06-10T03:08:39;6.70;;;5.23;;
16254;SDS011;8235;52.198;9.904;2023-06-10T03:11:06;5.43;;;4.40;;
16254;SDS011;8235;52.198;9.904;2023-06-10T03:13:32;8.50;;;4.73;;
16254;SDS011;8235;52.198;9.904;2023-06-10T03:15:59;8.97;;;5.57;;
16254;SDS011;8235;52.198;9.904;2023-06-10T03:18:26;7.53;;;4.67;;
16254;SDS011;8235;52.198;9.904;2023-06-10T03:20:54;7.93;;;5.33;;
16254;SDS011;8235;52.198;9.904;2023-06-10T03:23:22;7.90;;;5.27;;
16254;SDS011;8235;52.198;9.904;2023-06-10T03:25:49;9.30;;;5.30;;
16254;SDS011;8235;52.198;9.904;2023-06-10T03:28:16;5.97;;;5.17;;
16254;SDS011;8235;52.198;9.904;2023-06-10T03:30:42;7.30;;;4.73;;
16254;SDS011;8235;52.198;9.904;2023-06-10T03:33:08;5.97;;;4.93;;
16254;SDS011;8235;52.198;9.904;2023-06-10T03:35:35;7.73;;;5.37;;
16254;SDS011;8235;52.198;9.904;2023-06-10T03:38:01;6.23;;;5.50;;
16254;SDS011;8235;52.198;9.904;2023-06-10T03:40:29;6.53;;;4.67;;
16254;SDS011;8235;52.198;9.904;2023-06-10T03:42:56;7.63;;;5.10;;
16254;SDS011;8235;52.198;9.904;2023-06-10T03:45:23;7.43;;;5.37;;
16254;SDS011;8235;52.198;9.904;2023-06-10T03:47:50;6.13;;;5.27;;
16254;SDS011;8235;52.198;9.904;2023-06-10T03:50:17;7.83;;;5.40;;
16254;SDS011;8235;52.198;9.904;2023-06-10T03:52:43;6.97;;;5.40;;
16254;SDS011;8235;52.198;9.904;2023-06-10T03:55:10;8.73;;;5.50;;
16254;SDS011;8235;52.198;9.904;2023-06-10T03:57:39;11.50;;;5.37;;
16254;SDS011;8235;52.198;9.904;2023-06-10T04:00:07;10.77;;;6.20;;
16254;SDS011;8235;52.198;9.904;2023-06-10T04:02:36;8.10;;;5.70;;
16254;SDS011;8235;52.198;9.904;2023-06-10T04:05:03;7.73;;;5.77;;
16254;SDS011;8235;52.198;9.904;2023-06-10T04:07:30;9.03;;;5.63;;
16254;SDS011;8235;52.198;9.904;2023-06-10T04:09:57;9.67;;;5.73;;
16254;SDS011;8235;52.198;9.904;2023-06-10T04:12:23;6.73;;;5.93;;
16254;SDS011;8235;52.198;9.904;2023-06-10T04:14:51;7.23;;;5.63;;
16254;SDS011;8235;52.198;9.904;2023-06-10T04:17:18;7.67;;;5.20;;
16254;SDS011;8235;52.198;9.904;2023-06-10T04:19:44;9.20;;;5.93;;
16254;SDS011;8235;52.198;9.904;2023-06-10T04:22:11;9.23;;;6.27;;
16254;SDS011;8235;52.198;9.904;2023-06-10T04:24:38;10.43;;;6.30;;
16254;SDS011;8235;52.198;9.904;2023-06-10T04:27:04;7.47;;;6.23;;
16254;SDS011;8235;52.198;9.904;2023-06-10T04:29:31;9.20;;;5.80;;
16254;SDS011;8235;52.198;9.904;2023-06-10T04:31:59;9.57;;;5.80;;
16254;SDS011;8235;52.198;9.904;2023-06-10T04:34:26;8.90;;;6.27;;
16254;SDS011;8235;52.198;9.904;2023-06-10T04:36:53;10.57;;;5.90;;
16254;SDS011;8235;52.198;9.904;2023-06-10T04:39:19;7.67;;;6.00;;
16254;SDS011;8235;52.198;9.904;2023-06-10T04:41:46;8.70;;;6.97;;
16254;SDS011;8235;52.198;9.904;2023-06-10T04:44:12;9.33;;;7.00;;
16254;SDS011;8235;52.198;9.904;2023-06-10T04:46:39;10.23;;;6.73;;
16254;SDS011;8235;52.198;9.904;2023-06-10T04:49:07;8.73;;;6.90;;
16254;SDS011;8235;52.198;9.904;2023-06-10T04:51:33;6.93;;;6.20;;
16254;SDS011;8235;52.198;9.904;2023-06-10T04:54:00;10.97;;;6.60;;
16254;SDS011;8235;52.198;9.904;2023-06-10T04:56:28;9.60;;;6.00;;
16254;SDS011;8235;52.198;9.904;2023-06-10T04:58:55;9.67;;;6.47;;
16254;SDS011;8235;52.198;9.904;2023-06-10T05:01:21;8.83;;;6.63;;
16254;SDS011;8235;52.198;9.904;2023-06-10T05:03:48;8.90;;;6.03;;
16254;SDS011;8235;52.198;9.904;2023-06-10T05:06:16;8.37;;;6.30;;
16254;SDS011;8235;52.198;9.904;2023-06-10T05:08:42;10.00;;;6.60;;
16254;SDS011;8235;52.198;9.904;2023-06-10T05:11:09;9.20;;;6.67;;
16254;SDS011;8235;52.198;9.904;2023-06-10T05:13:35;8.20;;;7.07;;
16254;SDS011;8235;52.198;9.904;2023-06-10T05:16:02;8.53;;;6.50;;
16254;SDS011;8235;52.198;9.904;2023-06-10T05:18:28;9.43;;;7.07;;
16254;SDS011;8235;52.198;9.904;2023-06-10T05:20:56;10.43;;;6.57;;
16254;SDS011;8235;52.198;9.904;2023-06-10T05:23:24;10.80;;;6.63;;
16254;SDS011;8235;52.198;9.904;2023-06-10T05:25:50;8.63;;;6.97;;
16254;SDS011;8235;52.198;9.904;2023-06-10T05:28:16;11.53;;;7.33;;
16254;SDS011;8235;52.198;9.904;2023-06-10T05:30:43;9.63;;;7.20;;
16254;SDS011;8235;52.198;9.904;2023-06-10T05:33:09;10.70;;;7.10;;
16254;SDS011;8235;52.198;9.904;2023-06-10T05:35:36;15.20;;;8.47;;
16254;SDS011;8235;52.198;9.904;2023-06-10T05:38:02;17.67;;;7.60;;
16254;SDS011;8235;52.198;9.904;2023-06-10T05:40:30;9.53;;;7.37;;
16254;SDS011;8235;52.198;9.904;2023-06-10T05:42:57;10.40;;;6.70;;
16254;SDS011;8235;52.198;9.904;2023-06-10T05:45:23;10.57;;;7.37;;
16254;SDS011;8235;52.198;9.904;2023-06-10T05:47:49;10.73;;;7.37;;
16254;SDS011;8235;52.198;9.904;2023-06-10T05:50:16;8.90;;;7.67;;
16254;SDS011;8235;52.198;9.904;2023-06-10T05:52:43;12.30;;;7.27;;
16254;SDS011;8235;52.198;9.904;2023-06-10T05:55:09;13.53;;;7.07;;
16254;SDS011;8235;52.198;9.904;2023-06-10T05:57:37;11.20;;;7.90;;
16254;SDS011;8235;52.198;9.904;2023-06-10T06:00:04;10.40;;;7.33;;
16254;SDS011;8235;52.198;9.904;2023-06-10T06:02:32;10.63;;;7.23;;
16254;SDS011;8235;52.198;9.904;2023-06-10T06:04:59;12.00;;;8.20;;
16254;SDS011;8235;52.198;9.904;2023-06-10T06:07:25;8.13;;;7.33;;
16254;SDS011;8235;52.198;9.904;2023-06-10T06:09:52;9.83;;;7.27;;
16254;SDS011;8235;52.198;9.904;2023-06-10T06:12:18;10.10;;;7.07;;
16254;SDS011;8235;52.198;9.904;2023-06-10T06:14:46;11.37;;;7.90;;
16254;SDS011;8235;52.198;9.904;2023-06-10T06:17:14;13.67;;;7.77;;
16254;SDS011;8235;52.198;9.904;2023-06-10T06:19:40;10.10;;;7.13;;
16254;SDS011;8235;52.198;9.904;2023-06-10T06:22:07;9.37;;;7.30;;
16254;SDS011;8235;52.198;9.904;2023-06-10T06:24:33;11.33;;;7.00;;
16254;SDS011;8235;52.198;9.904;2023-06-10T06:27:00;12.33;;;7.33;;
16254;SDS011;8235;52.198;9.904;2023-06-10T06:29:26;9.93;;;7.00;;
16254;SDS011;8235;52.198;9.904;2023-06-10T06:31:56;9.87;;;7.43;;
16254;SDS011;8235;52.198;9.904;2023-06-10T06:34:23;13.17;;;7.43;;
16254;SDS011;8235;52.198;9.904;2023-06-10T06:36:50;8.83;;;6.77;;
16254;SDS011;8235;52.198;9.904;2023-06-10T06:39:17;9.20;;;7.20;;
16254;SDS011;8235;52.198;9.904;2023-06-10T06:41:44;8.63;;;6.30;;
16254;SDS011;8235;52.198;9.904;2023-06-10T06:44:11;14.10;;;8.20;;
16254;SDS011;8235;52.198;9.904;2023-06-10T06:46:38;9.70;;;6.90;;
16254;SDS011;8235;52.198;9.904;2023-06-10T06:49:06;13.43;;;7.50;;
16254;SDS011;8235;52.198;9.904;2023-06-10T06:51:33;10.40;;;7.20;;
16254;SDS011;8235;52.198;9.904;2023-06-10T06:54:00;13.40;;;7.00;;
16254;SDS011;8235;52.198;9.904;2023-06-10T06:56:27;11.87;;;7.33;;
16254;SDS011;8235;52.198;9.904;2023-06-10T06:58:54;8.37;;;6.97;;
16254;SDS011;8235;52.198;9.904;2023-06-10T07:01:21;10.50;;;7.13;;
16254;SDS011;8235;52.198;9.904;2023-06-10T07:03:48;10.63;;;7.20;;
16254;SDS011;8235;52.198;9.904;2023-06-10T07:06:16;12.77;;;7.37;;
16254;SDS011;8235;52.198;9.904;2023-06-10T07:08:43;9.43;;;6.70;;
16254;SDS011;8235;52.198;9.904;2023-06-10T07:11:10;9.47;;;7.00;;
16254;SDS011;8235;52.198;9.904;2023-06-10T07:13:37;9.97;;;6.63;;
16254;SDS011;8235;52.198;9.904;2023-06-10T07:16:03;12.20;;;7.07;;
16254;SDS011;8235;52.198;9.904;2023-06-10T07:18:30;12.70;;;7.53;;
16254;SDS011;8235;52.198;9.904;2023-06-10T07:20:57;10.57;;;6.87;;
16254;SDS011;8235;52.198;9.904;2023-06-10T07:23:25;7.23;;;6.53;;
16254;SDS011;8235;52.198;9.904;2023-06-10T07:25:52;9.27;;;6.87;;
16254;SDS011;8235;52.198;9.904;2023-06-10T07:28:19;12.50;;;5.87;;
16254;SDS011;8235;52.198;9.904;2023-06-10T07:30:45;7.30;;;5.63;;
16254;SDS011;8235;52.198;9.904;2023-06-10T07:33:12;10.57;;;6.60;;
16254;SDS011;8235;52.198;9.904;2023-06-10T07:35:39;9.20;;;6.10;;
16254;SDS011;8235;52.198;9.904;2023-06-10T07:38:08;8.43;;;6.30;;
16254;SDS011;8235;52.198;9.904;2023-06-10T07:40:36;6.67;;;5.83;;
16254;SDS011;8235;52.198;9.904;2023-06-10T07:43:03;9.70;;;6.60;;
16254;SDS011;8235;52.198;9.904;2023-06-10T07:45:30;8.83;;;6.87;;
16254;SDS011;8235;52.198;9.904;2023-06-10T07:47:56;9.20;;;5.80;;
16254;SDS011;8235;52.198;9.904;2023-06-10T07:50:23;9.50;;;6.40;;
16254;SDS011;8235;52.198;9.904;2023-06-10T07:52:50;11.73;;;6.57;;
16254;SDS011;8235;52.198;9.904;2023-06-10T07:55:16;9.23;;;6.10;;
16254;SDS011;8235;52.198;9.904;2023-06-10T07:57:44;9.43;;;6.50;;
16254;SDS011;8235;52.198;9.904;2023-06-10T08:00:11;9.30;;;6.03;;
16254;SDS011;8235;52.198;9.904;2023-06-10T08:02:39;8.80;;;6.10;;
16254;SDS011;8235;52.198;9.904;2023-06-10T08:05:06;10.27;;;5.80;;
16254;SDS011;8235;52.198;9.904;2023-06-10T08:07:33;8.27;;;5.90;;
16254;SDS011;8235;52.198;9.904;2023-06-10T08:10:00;7.03;;;6.30;;
16254;SDS011;8235;52.198;9.904;2023-06-10T08:12:27;10.90;;;6.20;;
16254;SDS011;8235;52.198;9.904;2023-06-10T08:14:56;9.90;;;6.27;;
16254;SDS011;8235;52.198;9.904;2023-06-10T08:17:22;10.40;;;6.07;;
16254;SDS011;8235;52.198;9.904;2023-06-10T08:19:49;9.20;;;6.25;;
16254;SDS011;8235;52.198;9.904;2023-06-10T08:22:15;10.02;;;6.68;;
16254;SDS011;8235;52.198;9.904;2023-06-10T08:24:42;10.95;;;6.55;;
16254;SDS011;8235;52.198;9.904;2023-06-10T08:27:09;8.70;;;6.80;;
16254;SDS011;8235;52.198;9.904;2023-06-10T08:29:35;7.72;;;6.45;;
16254;SDS011;8235;52.198;9.904;2023-06-10T08:32:03;7.03;;;6.07;;
16254;SDS011;8235;52.198;9.904;2023-06-10T08:34:33;8.85;;;5.80;;
16254;SDS011;8235;52.198;9.904;2023-06-10T08:37:00;10.77;;;6.10;;
16254;SDS011;8235;52.198;9.904;2023-06-10T08:39:26;9.48;;;6.18;;
16254;SDS011;8235;52.198;9.904;2023-06-10T08:42:00;9.45;;;6.10;;
16254;SDS011;8235;52.198;9.904;2023-06-10T08:44:32;7.93;;;6.63;;
16254;SDS011;8235;52.198;9.904;2023-06-10T08:47:05;7.75;;;5.97;;
16254;SDS011;8235;52.198;9.904;2023-06-10T08:49:38;8.77;;;5.78;;
16254;SDS011;8235;52.198;9.904;2023-06-10T08:52:07;7.82;;;6.60;;
16254;SDS011;8235;52.198;9.904;2023-06-10T08:54:35;8.05;;;6.25;;
16254;SDS011;8235;52.198;9.904;2023-06-10T08:57:05;12.30;;;6.13;;
16254;SDS011;8235;52.198;9.904;2023-06-10T08:59:33;8.60;;;6.22;;
16254;SDS011;8235;52.198;9.904;2023-06-10T09:01:59;7.93;;;6.55;;
16254;SDS011;8235;52.198;9.904;2023-06-10T09:04:28;8.93;;;5.60;;
16254;SDS011;8235;52.198;9.904;2023-06-10T09:06:55;8.07;;;5.82;;
16254;SDS011;8235;52.198;9.904;2023-06-10T09:09:22;6.93;;;5.80;;
16254;SDS011;8235;52.198;9.904;2023-06-10T09:11:49;8.30;;;5.85;;
16254;SDS011;8235;52.198;9.904;2023-06-10T09:14:15;9.98;;;6.25;;
16254;SDS011;8235;52.198;9.904;2023-06-10T09:16:42;11.40;;;6.38;;
16254;SDS011;8235;52.198;9.904;2023-06-10T09:19:08;8.50;;;5.78;;
16254;SDS011;8235;52.198;9.904;2023-06-10T09:21:36;7.75;;;5.70;;
16254;SDS011;8235;52.198;9.904;2023-06-10T09:24:03;7.80;;;5.65;;
16254;SDS011;8235;52.198;9.904;2023-06-10T09:26:31;8.00;;;5.68;;
16254;SDS011;8235;52.198;9.904;2023-06-10T09:28:57;10.18;;;6.40;;
16254;SDS011;8235;52.198;9.904;2023-06-10T09:31:28;10.10;;;6.30;;
16254;SDS011;8235;52.198;9.904;2023-06-10T09:33:57;6.72;;;5.47;;
16254;SDS011;8235;52.198;9.904;2023-06-10T09:36:31;9.40;;;6.10;;
16254;SDS011;8235;52.198;9.904;2023-06-10T09:39:00;6.70;;;5.93;;
16254;SDS011;8235;52.198;9.904;2023-06-10T09:41:31;6.60;;;5.60;;
16254;SDS011;8235;52.198;9.904;2023-06-10T09:43:58;6.38;;;5.70;;
16254;SDS011;8235;52.198;9.904;2023-06-10T09:46:25;10.02;;;6.10;;
16254;SDS011;8235;52.198;9.904;2023-06-10T09:48:57;9.32;;;5.80;;
16254;SDS011;8235;52.198;9.904;2023-06-10T09:51:24;9.20;;;6.78;;
16254;SDS011;8235;52.198;9.904;2023-06-10T09:53:51;7.28;;;5.93;;
16254;SDS011;8235;52.198;9.904;2023-06-10T09:56:19;10.20;;;6.75;;
16254;SDS011;8235;52.198;9.904;2023-06-10T09:58:46;7.78;;;6.25;;
16254;SDS011;8235;52.198;9.904;2023-06-10T10:01:13;6.68;;;5.55;;
16254;SDS011;8235;52.198;9.904;2023-06-10T10:03:44;10.13;;;5.95;;
16254;SDS011;8235;52.198;9.904;2023-06-10T10:06:12;8.65;;;5.93;;
16254;SDS011;8235;52.198;9.904;2023-06-10T10:08:39;7.07;;;5.45;;
16254;SDS011;8235;52.198;9.904;2023-06-10T10:11:05;9.55;;;5.90;;
16254;SDS011;8235;52.198;9.904;2023-06-10T10:13:33;6.50;;;5.60;;
16254;SDS011;8235;52.198;9.904;2023-06-10T10:16:01;6.65;;;5.13;;
16254;SDS011;8235;52.198;9.904;2023-06-10T10:18:32;7.38;;;5.70;;
16254;SDS011;8235;52.198;9.904;2023-06-10T10:21:03;7.53;;;5.70;;
16254;SDS011;8235;52.198;9.904;2023-06-10T10:23:34;7.65;;;5.75;;
16254;SDS011;8235;52.198;9.904;2023-06-10T10:26:07;7.55;;;5.68;;
16254;SDS011;8235;52.198;9.904;2023-06-10T10:28:41;9.88;;;6.15;;
16254;SDS011;8235;52.198;9.904;2023-06-10T10:31:12;7.65;;;5.50;;
16254;SDS011;8235;52.198;9.904;2023-06-10T10:33:47;7.40;;;5.57;;
16254;SDS011;8235;52.198;9.904;2023-06-10T10:36:18;7.85;;;5.85;;
16254;SDS011;8235;52.198;9.904;2023-06-10T10:38:45;7.38;;;5.97;;
16254;SDS011;8235;52.198;9.904;2023-06-10T10:41:14;7.30;;;5.20;;
16254;SDS011;8235;52.198;9.904;2023-06-10T10:43:42;7.75;;;5.78;;
16254;SDS011;8235;52.198;9.904;2023-06-10T10:46:11;6.40;;;5.63;;
16254;SDS011;8235;52.198;9.904;2023-06-10T10:48:39;9.32;;;6.15;;
16254;SDS011;8235;52.198;9.904;2023-06-10T10:51:06;6.75;;;6.05;;
16254;SDS011;8235;52.198;9.904;2023-06-10T10:53:32;7.78;;;5.32;;
16254;SDS011;8235;52.198;9.904;2023-06-10T10:55:59;8.20;;;5.78;;
16254;SDS011;8235;52.198;9.904;2023-06-10T10:58:26;11.60;;;5.35;;
16254;SDS011;8235;52.198;9.904;2023-06-10T11:00:54;8.73;;;5.97;;
16254;SDS011;8235;52.198;9.904;2023-06-10T11:03:20;7.15;;;5.50;;
16254;SDS011;8235;52.198;9.904;2023-06-10T11:05:47;7.13;;;5.13;;
16254;SDS011;8235;52.198;9.904;2023-06-10T11:08:15;9.27;;;5.75;;
16254;SDS011;8235;52.198;9.904;2023-06-10T11:10:52;7.55;;;5.60;;
16254;SDS011;8235;52.198;9.904;2023-06-10T11:13:19;5.97;;;5.38;;
16254;SDS011;8235;52.198;9.904;2023-06-10T11:15:47;6.30;;;5.57;;
16254;SDS011;8235;52.198;9.904;2023-06-10T11:18:19;6.97;;;5.82;;
16254;SDS011;8235;52.198;9.904;2023-06-10T11:20:51;7.07;;;5.28;;
16254;SDS011;8235;52.198;9.904;2023-06-10T11:23:38;11.38;;;5.90;;
16254;SDS011;8235;52.198;9.904;2023-06-10T11:26:16;6.13;;;5.53;;
16254;SDS011;8235;52.198;9.904;2023-06-10T11:31:39;6.85;;;5.93;;
16254;SDS011;8235;52.198;9.904;2023-06-10T11:34:09;5.93;;;5.30;;
16254;SDS011;8235;52.198;9.904;2023-06-10T11:36:36;7.72;;;6.00;;
16254;SDS011;8235;52.198;9.904;2023-06-10T11:39:05;8.85;;;5.90;;
16254;SDS011;8235;52.198;9.904;2023-06-10T11:41:32;7.45;;;6.30;;
16254;SDS011;8235;52.198;9.904;2023-06-10T11:44:01;9.15;;;5.68;;
16254;SDS011;8235;52.198;9.904;2023-06-10T11:46:28;7.65;;;5.70;;
16254;SDS011;8235;52.198;9.904;2023-06-10T11:48:55;6.07;;;5.55;;
16254;SDS011;8235;52.198;9.904;2023-06-10T11:51:26;5.97;;;5.35;;
16254;SDS011;8235;52.198;9.904;2023-06-10T11:53:54;6.15;;;5.55;;
16254;SDS011;8235;52.198;9.904;2023-06-10T11:56:21;7.30;;;5.50;;
16254;SDS011;8235;52.198;9.904;2023-06-10T11:58:52;5.90;;;5.30;;
16254;SDS011;8235;52.198;9.904;2023-06-10T12:01:21;9.40;;;5.68;;
16254;SDS011;8235;52.198;9.904;2023-06-10T12:03:56;8.75;;;5.60;;
16254;SDS011;8235;52.198;9.904;2023-06-10T12:06:23;7.28;;;5.75;;
16254;SDS011;8235;52.198;9.904;2023-06-10T12:08:51;6.93;;;5.45;;
16254;SDS011;8235;52.198;9.904;2023-06-10T12:11:17;8.93;;;5.95;;
16254;SDS011;8235;52.198;9.904;2023-06-10T12:13:47;6.70;;;5.20;;
16254;SDS011;8235;52.198;9.904;2023-06-10T12:16:15;7.80;;;6.32;;
16254;SDS011;8235;52.198;9.904;2023-06-10T12:18:43;6.50;;;5.57;;
16254;SDS011;8235;52.198;9.904;2023-06-10T12:21:17;6.07;;;5.55;;
16254;SDS011;8235;52.198;9.904;2023-06-10T12:24:05;7.20;;;5.88;;
16254;SDS011;8235;52.198;9.904;2023-06-10T12:26:33;6.30;;;5.60;;
16254;SDS011;8235;52.198;9.904;2023-06-10T12:29:19;8.30;;;5.97;;
16254;SDS011;8235;52.198;9.904;2023-06-10T12:31:58;6.30;;;5.70;;
16254;SDS011;8235;52.198;9.904;2023-06-10T12:34:29;7.05;;;5.70;;
16254;SDS011;8235;52.198;9.904;2023-06-10T12:37:00;9.30;;;5.93;;
16254;SDS011;8235;52.198;9.904;2023-06-10T12:39:30;8.38;;;6.22;;
16254;SDS011;8235;52.198;9.904;2023-06-10T12:41:57;8.85;;;6.15;;
16254;SDS011;8235;52.198;9.904;2023-06-10T12:44:30;6.78;;;6.25;;
16254;SDS011;8235;52.198;9.904;2023-06-10T12:46:58;6.30;;;5.55;;
16254;SDS011;8235;52.198;9.904;2023-06-10T12:49:25;9.52;;;6.38;;
16254;SDS011;8235;52.198;9.904;2023-06-10T12:51:52;7.75;;;6.47;;
16254;SDS011;8235;52.198;9.904;2023-06-10T12:54:19;6.38;;;5.78;;
16254;SDS011;8235;52.198;9.904;2023-06-10T12:56:47;7.47;;;5.93;;
16254;SDS011;8235;52.198;9.904;2023-06-10T12:59:13;7.70;;;6.40;;
16254;SDS011;8235;52.198;9.904;2023-06-10T13:01:40;7.20;;;6.03;;
16254;SDS011;8235;52.198;9.904;2023-06-10T13:04:06;6.95;;;6.28;;
16254;SDS011;8235;52.198;9.904;2023-06-10T13:06:33;6.47;;;5.93;;
16254;SDS011;8235;52.198;9.904;2023-06-10T13:09:02;6.22;;;5.50;;
16254;SDS011;8235;52.198;9.904;2023-06-10T13:11:30;9.63;;;6.57;;
16254;SDS011;8235;52.198;9.904;2023-06-10T13:13:57;7.25;;;6.28;;
16254;SDS011;8235;52.198;9.904;2023-06-10T13:16:24;6.43;;;5.78;;
16254;SDS011;8235;52.198;9.904;2023-06-10T13:18:52;8.18;;;6.45;;
16254;SDS011;8235;52.198;9.904;2023-06-10T13:21:19;6.15;;;5.43;;
16254;SDS011;8235;52.198;9.904;2023-06-10T13:23:46;6.55;;;5.95;;
16254;SDS011;8235;52.198;9.904;2023-06-10T13:26:13;7.68;;;6.28;;
16254;SDS011;8235;52.198;9.904;2023-06-10T13:28:39;7.05;;;6.35;;
16254;SDS011;8235;52.198;9.904;2023-06-10T13:31:07;7.03;;;6.32;;
16254;SDS011;8235;52.198;9.904;2023-06-10T13:33:34;7.15;;;6.45;;
16254;SDS011;8235;52.198;9.904;2023-06-10T13:36:00;6.95;;;5.95;;
16254;SDS011;8235;52.198;9.904;2023-06-10T13:38:27;8.65;;;6.60;;
16254;SDS011;8235;52.198;9.904;2023-06-10T13:40:53;6.68;;;6.15;;
16254;SDS011;8235;52.198;9.904;2023-06-10T13:43:19;6.45;;;5.80;;
16254;SDS011;8235;52.198;9.904;2023-06-10T13:45:46;6.97;;;6.18;;
16254;SDS011;8235;52.198;9.904;2023-06-10T13:48:14;8.02;;;6.13;;
16254;SDS011;8235;52.198;9.904;2023-06-10T13:50:40;6.53;;;5.93;;
16254;SDS011;8235;52.198;9.904;2023-06-10T13:53:10;6.38;;;5.45;;
16254;SDS011;8235;52.198;9.904;2023-06-10T13:55:37;6.05;;;5.53;;
16254;SDS011;8235;52.198;9.904;2023-06-10T13:58:03;6.82;;;6.13;;
16254;SDS011;8235;52.198;9.904;2023-06-10T14:00:30;7.10;;;5.90;;
16254;SDS011;8235;52.198;9.904;2023-06-10T14:02:57;6.57;;;5.97;;
16254;SDS011;8235;52.198;9.904;2023-06-10T14:05:25;6.15;;;5.65;;
16254;SDS011;8235;52.198;9.904;2023-06-10T14:07:51;6.43;;;5.50;;
16254;SDS011;8235;52.198;9.904;2023-06-10T14:10:18;6.53;;;6.03;;
16254;SDS011;8235;52.198;9.904;2023-06-10T14:12:44;6.65;;;5.97;;
16254;SDS011;8235;52.198;9.904;2023-06-10T14:15:11;6.65;;;6.03;;
16254;SDS011;8235;52.198;9.904;2023-06-10T14:17:38;7.30;;;5.80;;
16254;SDS011;8235;52.198;9.904;2023-06-10T14:20:04;6.65;;;6.03;;
16254;SDS011;8235;52.198;9.904;2023-06-10T14:22:33;7.28;;;6.57;;
16254;SDS011;8235;52.198;9.904;2023-06-10T14:25:02;6.60;;;6.00;;
16254;SDS011;8235;52.198;9.904;2023-06-10T14:27:29;7.35;;;5.82;;
16254;SDS011;8235;52.198;9.904;2023-06-10T14:29:55;8.02;;;6.15;;
16254;SDS011;8235;52.198;9.904;2023-06-10T14:32:22;7.32;;;6.55;;
16254;SDS011;8235;52.198;9.904;2023-06-10T14:34:48;7.25;;;5.60;;
16254;SDS011;8235;52.198;9.904;2023-06-10T14:37:15;6.20;;;5.70;;
16254;SDS011;8235;52.198;9.904;2023-06-10T14:39:42;7.78;;;6.13;;
16254;SDS011;8235;52.198;9.904;2023-06-10T14:42:09;7.78;;;6.03;;
16254;SDS011;8235;52.198;9.904;2023-06-10T14:44:35;6.15;;;5.65;;
16254;SDS011;8235;52.198;9.904;2023-06-10T14:47:02;6.22;;;5.63;;
16254;SDS011;8235;52.198;9.904;2023-06-10T14:49:28;5.82;;;5.30;;
16254;SDS011;8235;52.198;9.904;2023-06-10T14:51:55;6.43;;;5.82;;
16254;SDS011;8235;52.198;9.904;2023-06-10T14:54:21;6.57;;;5.50;;
16254;SDS011;8235;52.198;9.904;2023-06-10T14:56:49;6.90;;;6.25;;
16254;SDS011;8235;52.198;9.904;2023-06-10T14:59:15;6.97;;;6.38;;
16254;SDS011;8235;52.198;9.904;2023-06-10T15:01:42;6.53;;;6.03;;
16254;SDS011;8235;52.198;9.904;2023-06-10T15:04:08;8.00;;;5.55;;
16254;SDS011;8235;52.198;9.904;2023-06-10T15:06:35;6.32;;;5.82;;